Hauptseite
METAR-TAF:

METAR-TAF

Flughäfen :

Recife, Pernambuco, Brasilien

Flughafen Recife

Breite: 08-08S, Länge: 034-55W, Höhe: 19 m

Beobachtung

Neuester Wetterbericht von vor 1 Stunde und 15 Minuten, um 14:00 UTC
Wind 7 kt aus Ost
Temperatur 31°C
Luftfeuchtigkeit 71%
Luftdruck 1012 hPa
Sichtweite 10 km oder mehr
Aufgelockert bewölkt in der Höhe von 2300 ft

METAR: SBRF 291400Z 10007KT 9999 SCT023 31/25 Q1012

Zeit: 12:15 (15:15 UTC)

Prognose

Neuester Wetterbericht von vor 5 Stunden und 15 Minuten, um 10:00 UTC
Gültige Prognose vom 29 um 12 UTC bis 30 um 12 UTC
Wind 7 kt aus Ost
Sichtweite: 8000 m
Aufgelockert bewölkt in der Höhe von 2200 ft

TAF: SBRF 291000Z 2912/3012 08007KT 8000 SCT022 TX31/2916Z TN27/3008Z RMK PEA

Wetterbeobachtungen und Prognosen von mehr als 4000 Flughäfen (METAR und TAF Bericht).

Die verfügbaren Stationen werden durch gelbe und rote Markierungen auf der Karte dargestellt.

Führen Sie die Maus auf sie, um den Namen der Station zu sehen.

Darauf klicken, um die Beobachtung von Wetterbeobachtungen und Prognosen zu sehen.

Um die Karte zu ändern : klicken Sie auf den grünen Tasten mit einem schwarzen Kreuz Zum Vergrößern, auf den grünen Button mit einem Gedankenstrich zu verkleinern, oder auf die grünen Pfeile für benachbarte Karten.


METAR-TAF: